sensor_id;sensor_type;location;lat;lon;timestamp;P1;durP1;ratioP1;P2;durP2;ratioP2
39266;SDS011;24967;51.154;13.812;2023-06-01T00:00:09;2.70;;;2.47;;
39266;SDS011;24967;51.154;13.812;2023-06-01T00:02:39;3.25;;;2.75;;
39266;SDS011;24967;51.154;13.812;2023-06-01T00:05:07;5.07;;;2.83;;
39266;SDS011;24967;51.154;13.812;2023-06-01T00:07:34;3.10;;;2.45;;
39266;SDS011;24967;51.154;13.812;2023-06-01T00:10:00;4.25;;;2.47;;
39266;SDS011;24967;51.154;13.812;2023-06-01T00:12:27;3.95;;;2.35;;
39266;SDS011;24967;51.154;13.812;2023-06-01T00:14:53;4.20;;;2.70;;
39266;SDS011;24967;51.154;13.812;2023-06-01T00:17:20;3.88;;;2.30;;
39266;SDS011;24967;51.154;13.812;2023-06-01T00:19:47;4.13;;;2.55;;
39266;SDS011;24967;51.154;13.812;2023-06-01T00:22:15;2.72;;;2.53;;
39266;SDS011;24967;51.154;13.812;2023-06-01T00:24:42;3.13;;;2.60;;
39266;SDS011;24967;51.154;13.812;2023-06-01T00:27:08;2.95;;;2.50;;
39266;SDS011;24967;51.154;13.812;2023-06-01T00:29:35;4.45;;;2.72;;
39266;SDS011;24967;51.154;13.812;2023-06-01T00:32:01;7.38;;;2.80;;
39266;SDS011;24967;51.154;13.812;2023-06-01T00:34:28;3.88;;;3.13;;
39266;SDS011;24967;51.154;13.812;2023-06-01T00:36:54;6.60;;;3.45;;
39266;SDS011;24967;51.154;13.812;2023-06-01T00:39:22;3.22;;;2.90;;
39266;SDS011;24967;51.154;13.812;2023-06-01T00:41:48;3.42;;;2.58;;
39266;SDS011;24967;51.154;13.812;2023-06-01T00:44:15;6.55;;;2.78;;
39266;SDS011;24967;51.154;13.812;2023-06-01T00:46:41;4.28;;;3.40;;
39266;SDS011;24967;51.154;13.812;2023-06-01T00:49:08;2.75;;;2.50;;
39266;SDS011;24967;51.154;13.812;2023-06-01T00:51:34;4.97;;;2.92;;
39266;SDS011;24967;51.154;13.812;2023-06-01T00:54:01;5.60;;;3.08;;
39266;SDS011;24967;51.154;13.812;2023-06-01T00:56:29;7.15;;;3.10;;
39266;SDS011;24967;51.154;13.812;2023-06-01T00:58:58;4.28;;;2.72;;
39266;SDS011;24967;51.154;13.812;2023-06-01T01:01:25;4.38;;;2.88;;
39266;SDS011;24967;51.154;13.812;2023-06-01T01:03:51;3.58;;;2.90;;
39266;SDS011;24967;51.154;13.812;2023-06-01T01:06:25;3.05;;;2.63;;
39266;SDS011;24967;51.154;13.812;2023-06-01T01:09:07;2.88;;;2.50;;
39266;SDS011;24967;51.154;13.812;2023-06-01T01:11:43;3.00;;;2.53;;
39266;SDS011;24967;51.154;13.812;2023-06-01T01:14:19;3.30;;;2.50;;
39266;SDS011;24967;51.154;13.812;2023-06-01T01:16:49;2.33;;;2.13;;
39266;SDS011;24967;51.154;13.812;2023-06-01T01:19:29;5.65;;;2.85;;
39266;SDS011;24967;51.154;13.812;2023-06-01T01:22:22;3.05;;;2.85;;
39266;SDS011;24967;51.154;13.812;2023-06-01T01:25:05;2.60;;;2.40;;
39266;SDS011;24967;51.154;13.812;2023-06-01T01:27:53;2.50;;;2.30;;
39266;SDS011;24967;51.154;13.812;2023-06-01T01:30:34;4.72;;;2.60;;
39266;SDS011;24967;51.154;13.812;2023-06-01T01:33:03;5.07;;;2.72;;
39266;SDS011;24967;51.154;13.812;2023-06-01T01:35:30;4.65;;;2.70;;
39266;SDS011;24967;51.154;13.812;2023-06-01T01:37:58;3.03;;;2.80;;
39266;SDS011;24967;51.154;13.812;2023-06-01T01:40:24;4.63;;;2.65;;
39266;SDS011;24967;51.154;13.812;2023-06-01T01:42:51;4.97;;;2.78;;
39266;SDS011;24967;51.154;13.812;2023-06-01T01:45:18;3.42;;;2.72;;
39266;SDS011;24967;51.154;13.812;2023-06-01T01:47:49;3.10;;;2.53;;
39266;SDS011;24967;51.154;13.812;2023-06-01T01:50:21;2.97;;;2.78;;
39266;SDS011;24967;51.154;13.812;2023-06-01T01:52:52;4.28;;;2.90;;
39266;SDS011;24967;51.154;13.812;2023-06-01T01:55:20;3.75;;;2.83;;
39266;SDS011;24967;51.154;13.812;2023-06-01T01:57:49;3.50;;;3.20;;
39266;SDS011;24967;51.154;13.812;2023-06-01T02:00:17;6.32;;;3.20;;
39266;SDS011;24967;51.154;13.812;2023-06-01T02:02:44;4.43;;;2.70;;
39266;SDS011;24967;51.154;13.812;2023-06-01T02:05:12;3.58;;;3.25;;
39266;SDS011;24967;51.154;13.812;2023-06-01T02:07:39;4.03;;;2.95;;
39266;SDS011;24967;51.154;13.812;2023-06-01T02:10:06;3.15;;;2.95;;
39266;SDS011;24967;51.154;13.812;2023-06-01T02:12:33;3.75;;;2.88;;
39266;SDS011;24967;51.154;13.812;2023-06-01T02:15:00;2.80;;;2.60;;
39266;SDS011;24967;51.154;13.812;2023-06-01T02:17:27;5.57;;;2.95;;
39266;SDS011;24967;51.154;13.812;2023-06-01T02:19:53;3.70;;;3.38;;
39266;SDS011;24967;51.154;13.812;2023-06-01T02:22:21;3.05;;;2.80;;
39266;SDS011;24967;51.154;13.812;2023-06-01T02:24:48;4.10;;;2.95;;
39266;SDS011;24967;51.154;13.812;2023-06-01T02:27:14;3.92;;;2.92;;
39266;SDS011;24967;51.154;13.812;2023-06-01T02:29:40;5.05;;;2.83;;
39266;SDS011;24967;51.154;13.812;2023-06-01T02:32:07;3.22;;;2.92;;
39266;SDS011;24967;51.154;13.812;2023-06-01T02:34:34;4.22;;;3.17;;
39266;SDS011;24967;51.154;13.812;2023-06-01T02:37:02;4.72;;;3.10;;
39266;SDS011;24967;51.154;13.812;2023-06-01T02:39:31;3.95;;;2.63;;
39266;SDS011;24967;51.154;13.812;2023-06-01T02:41:57;6.13;;;3.00;;
39266;SDS011;24967;51.154;13.812;2023-06-01T02:44:24;3.28;;;2.78;;
39266;SDS011;24967;51.154;13.812;2023-06-01T02:46:50;5.20;;;2.72;;
39266;SDS011;24967;51.154;13.812;2023-06-01T02:49:16;4.40;;;3.35;;
39266;SDS011;24967;51.154;13.812;2023-06-01T02:51:43;3.22;;;2.92;;
39266;SDS011;24967;51.154;13.812;2023-06-01T02:54:09;3.25;;;2.90;;
39266;SDS011;24967;51.154;13.812;2023-06-01T02:56:37;4.13;;;2.95;;
39266;SDS011;24967;51.154;13.812;2023-06-01T02:59:03;3.90;;;3.00;;
39266;SDS011;24967;51.154;13.812;2023-06-01T03:01:31;3.65;;;3.00;;
39266;SDS011;24967;51.154;13.812;2023-06-01T03:04:00;4.05;;;2.60;;
39266;SDS011;24967;51.154;13.812;2023-06-01T03:06:28;2.88;;;2.53;;
39266;SDS011;24967;51.154;13.812;2023-06-01T03:08:56;5.20;;;3.08;;
39266;SDS011;24967;51.154;13.812;2023-06-01T03:11:23;5.65;;;2.53;;
39266;SDS011;24967;51.154;13.812;2023-06-01T03:13:51;2.95;;;2.40;;
39266;SDS011;24967;51.154;13.812;2023-06-01T03:16:17;4.80;;;2.80;;
39266;SDS011;24967;51.154;13.812;2023-06-01T03:18:44;3.30;;;3.00;;
39266;SDS011;24967;51.154;13.812;2023-06-01T03:21:10;3.78;;;2.92;;
39266;SDS011;24967;51.154;13.812;2023-06-01T03:23:37;3.28;;;2.97;;
39266;SDS011;24967;51.154;13.812;2023-06-01T03:26:08;4.72;;;2.58;;
39266;SDS011;24967;51.154;13.812;2023-06-01T03:28:35;3.88;;;2.50;;
39266;SDS011;24967;51.154;13.812;2023-06-01T03:31:03;3.63;;;2.83;;
39266;SDS011;24967;51.154;13.812;2023-06-01T03:33:29;4.53;;;2.83;;
39266;SDS011;24967;51.154;13.812;2023-06-01T03:35:55;3.40;;;3.10;;
39266;SDS011;24967;51.154;13.812;2023-06-01T03:38:22;3.55;;;3.08;;
39266;SDS011;24967;51.154;13.812;2023-06-01T03:40:48;5.13;;;3.50;;
39266;SDS011;24967;51.154;13.812;2023-06-01T03:43:15;3.42;;;3.13;;
39266;SDS011;24967;51.154;13.812;2023-06-01T03:45:41;2.88;;;2.67;;
39266;SDS011;24967;51.154;13.812;2023-06-01T03:48:09;6.43;;;3.60;;
39266;SDS011;24967;51.154;13.812;2023-06-01T03:50:36;4.80;;;3.40;;
39266;SDS011;24967;51.154;13.812;2023-06-01T03:53:02;4.63;;;3.15;;
39266;SDS011;24967;51.154;13.812;2023-06-01T03:55:29;6.07;;;3.67;;
39266;SDS011;24967;51.154;13.812;2023-06-01T03:57:56;5.32;;;3.28;;
39266;SDS011;24967;51.154;13.812;2023-06-01T04:00:22;5.10;;;3.35;;
39266;SDS011;24967;51.154;13.812;2023-06-01T04:02:50;3.90;;;3.30;;
39266;SDS011;24967;51.154;13.812;2023-06-01T04:05:20;3.10;;;2.80;;
39266;SDS011;24967;51.154;13.812;2023-06-01T04:07:47;3.58;;;3.10;;
39266;SDS011;24967;51.154;13.812;2023-06-01T04:10:15;3.58;;;3.03;;
39266;SDS011;24967;51.154;13.812;2023-06-01T04:12:42;5.85;;;3.38;;
39266;SDS011;24967;51.154;13.812;2023-06-01T04:15:09;3.42;;;2.78;;
39266;SDS011;24967;51.154;13.812;2023-06-01T04:17:36;4.35;;;2.97;;
39266;SDS011;24967;51.154;13.812;2023-06-01T04:20:04;4.63;;;3.47;;
39266;SDS011;24967;51.154;13.812;2023-06-01T04:22:33;9.73;;;3.78;;
39266;SDS011;24967;51.154;13.812;2023-06-01T04:25:00;4.15;;;3.67;;
39266;SDS011;24967;51.154;13.812;2023-06-01T04:27:26;5.72;;;3.92;;
39266;SDS011;24967;51.154;13.812;2023-06-01T04:29:53;4.28;;;3.65;;
39266;SDS011;24967;51.154;13.812;2023-06-01T04:32:20;5.50;;;4.20;;
39266;SDS011;24967;51.154;13.812;2023-06-01T04:34:47;5.25;;;3.45;;
39266;SDS011;24967;51.154;13.812;2023-06-01T04:37:14;3.92;;;3.47;;
39266;SDS011;24967;51.154;13.812;2023-06-01T04:39:46;4.82;;;3.47;;
39266;SDS011;24967;51.154;13.812;2023-06-01T04:42:15;6.20;;;4.00;;
39266;SDS011;24967;51.154;13.812;2023-06-01T04:44:42;3.85;;;3.33;;
39266;SDS011;24967;51.154;13.812;2023-06-01T04:47:10;3.72;;;3.40;;
39266;SDS011;24967;51.154;13.812;2023-06-01T04:49:39;4.38;;;3.53;;
39266;SDS011;24967;51.154;13.812;2023-06-01T04:52:06;3.50;;;3.13;;
39266;SDS011;24967;51.154;13.812;2023-06-01T04:54:35;5.57;;;3.22;;
39266;SDS011;24967;51.154;13.812;2023-06-01T04:57:03;4.35;;;3.20;;
39266;SDS011;24967;51.154;13.812;2023-06-01T04:59:31;5.70;;;3.13;;
39266;SDS011;24967;51.154;13.812;2023-06-01T05:01:57;4.85;;;3.10;;
39266;SDS011;24967;51.154;13.812;2023-06-01T05:04:24;9.38;;;3.65;;
39266;SDS011;24967;51.154;13.812;2023-06-01T05:06:51;5.53;;;3.20;;
39266;SDS011;24967;51.154;13.812;2023-06-01T05:09:17;7.05;;;3.30;;
39266;SDS011;24967;51.154;13.812;2023-06-01T05:11:44;4.72;;;3.50;;
39266;SDS011;24967;51.154;13.812;2023-06-01T05:14:12;8.52;;;3.50;;
39266;SDS011;24967;51.154;13.812;2023-06-01T05:16:38;4.97;;;3.40;;
39266;SDS011;24967;51.154;13.812;2023-06-01T05:19:05;8.15;;;3.10;;
39266;SDS011;24967;51.154;13.812;2023-06-01T05:21:31;7.70;;;3.00;;
39266;SDS011;24967;51.154;13.812;2023-06-01T05:23:57;4.47;;;2.88;;
39266;SDS011;24967;51.154;13.812;2023-06-01T05:26:24;6.05;;;3.38;;
39266;SDS011;24967;51.154;13.812;2023-06-01T05:28:52;5.05;;;3.10;;
39266;SDS011;24967;51.154;13.812;2023-06-01T05:31:20;5.55;;;3.33;;
39266;SDS011;24967;51.154;13.812;2023-06-01T05:33:47;4.00;;;2.88;;
39266;SDS011;24967;51.154;13.812;2023-06-01T05:36:13;8.95;;;2.58;;
39266;SDS011;24967;51.154;13.812;2023-06-01T05:38:40;4.68;;;2.80;;
39266;SDS011;24967;51.154;13.812;2023-06-01T05:41:06;6.35;;;3.00;;
39266;SDS011;24967;51.154;13.812;2023-06-01T05:43:34;4.88;;;2.47;;
39266;SDS011;24967;51.154;13.812;2023-06-01T05:46:01;5.53;;;3.03;;
39266;SDS011;24967;51.154;13.812;2023-06-01T05:48:29;7.53;;;2.70;;
39266;SDS011;24967;51.154;13.812;2023-06-01T05:50:55;6.60;;;2.85;;
39266;SDS011;24967;51.154;13.812;2023-06-01T05:53:22;3.78;;;2.80;;
39266;SDS011;24967;51.154;13.812;2023-06-01T05:55:50;6.28;;;3.08;;
39266;SDS011;24967;51.154;13.812;2023-06-01T05:58:17;6.55;;;2.83;;
39266;SDS011;24967;51.154;13.812;2023-06-01T06:00:43;7.05;;;2.90;;
39266;SDS011;24967;51.154;13.812;2023-06-01T06:03:10;4.60;;;2.92;;
39266;SDS011;24967;51.154;13.812;2023-06-01T06:05:38;8.13;;;3.20;;
39266;SDS011;24967;51.154;13.812;2023-06-01T06:08:05;2.90;;;2.53;;
39266;SDS011;24967;51.154;13.812;2023-06-01T06:10:31;5.63;;;2.90;;
39266;SDS011;24967;51.154;13.812;2023-06-01T06:12:58;3.80;;;2.72;;
39266;SDS011;24967;51.154;13.812;2023-06-01T06:15:25;6.57;;;3.30;;
39266;SDS011;24967;51.154;13.812;2023-06-01T06:17:51;4.78;;;2.47;;
39266;SDS011;24967;51.154;13.812;2023-06-01T06:20:18;4.53;;;2.70;;
39266;SDS011;24967;51.154;13.812;2023-06-01T06:22:50;4.47;;;2.53;;
39266;SDS011;24967;51.154;13.812;2023-06-01T06:25:16;3.95;;;2.40;;
39266;SDS011;24967;51.154;13.812;2023-06-01T06:27:43;5.18;;;2.70;;
39266;SDS011;24967;51.154;13.812;2023-06-01T06:30:10;6.95;;;2.80;;
39266;SDS011;24967;51.154;13.812;2023-06-01T06:32:37;3.95;;;2.22;;
39266;SDS011;24967;51.154;13.812;2023-06-01T06:35:04;7.38;;;2.55;;
39266;SDS011;24967;51.154;13.812;2023-06-01T06:37:30;8.07;;;2.50;;
39266;SDS011;24967;51.154;13.812;2023-06-01T06:39:58;8.18;;;2.47;;
39266;SDS011;24967;51.154;13.812;2023-06-01T06:42:25;5.10;;;2.97;;
39266;SDS011;24967;51.154;13.812;2023-06-01T06:44:52;6.47;;;2.40;;
39266;SDS011;24967;51.154;13.812;2023-06-01T06:47:19;5.30;;;2.80;;
39266;SDS011;24967;51.154;13.812;2023-06-01T06:49:45;7.35;;;3.30;;
39266;SDS011;24967;51.154;13.812;2023-06-01T06:52:12;6.63;;;3.10;;
39266;SDS011;24967;51.154;13.812;2023-06-01T06:54:38;5.18;;;2.97;;
39266;SDS011;24967;51.154;13.812;2023-06-01T06:57:07;4.75;;;2.58;;
39266;SDS011;24967;51.154;13.812;2023-06-01T06:59:34;4.38;;;3.15;;
39266;SDS011;24967;51.154;13.812;2023-06-01T07:02:00;3.70;;;2.80;;
39266;SDS011;24967;51.154;13.812;2023-06-01T07:04:28;5.72;;;3.45;;
39266;SDS011;24967;51.154;13.812;2023-06-01T07:06:55;5.15;;;2.95;;
39266;SDS011;24967;51.154;13.812;2023-06-01T07:09:22;4.45;;;3.28;;
39266;SDS011;24967;51.154;13.812;2023-06-01T07:11:48;3.55;;;2.90;;
39266;SDS011;24967;51.154;13.812;2023-06-01T07:14:16;4.47;;;3.13;;
39266;SDS011;24967;51.154;13.812;2023-06-01T07:16:43;4.15;;;2.90;;
39266;SDS011;24967;51.154;13.812;2023-06-01T07:19:09;6.97;;;3.13;;
39266;SDS011;24967;51.154;13.812;2023-06-01T07:21:35;4.28;;;3.25;;
39266;SDS011;24967;51.154;13.812;2023-06-01T07:24:04;6.35;;;2.90;;
39266;SDS011;24967;51.154;13.812;2023-06-01T07:26:31;7.13;;;3.55;;
39266;SDS011;24967;51.154;13.812;2023-06-01T07:28:57;3.78;;;2.95;;
39266;SDS011;24967;51.154;13.812;2023-06-01T07:31:26;8.15;;;2.85;;
39266;SDS011;24967;51.154;13.812;2023-06-01T07:33:53;4.65;;;2.97;;
39266;SDS011;24967;51.154;13.812;2023-06-01T07:36:20;6.93;;;3.03;;
39266;SDS011;24967;51.154;13.812;2023-06-01T07:38:48;5.10;;;3.08;;
39266;SDS011;24967;51.154;13.812;2023-06-01T07:41:15;9.68;;;3.20;;
39266;SDS011;24967;51.154;13.812;2023-06-01T07:43:42;4.68;;;3.00;;
39266;SDS011;24967;51.154;13.812;2023-06-01T07:46:08;6.22;;;2.88;;
39266;SDS011;24967;51.154;13.812;2023-06-01T07:48:36;3.72;;;2.80;;
39266;SDS011;24967;51.154;13.812;2023-06-01T07:51:04;3.88;;;2.88;;
39266;SDS011;24967;51.154;13.812;2023-06-01T07:53:32;4.82;;;2.88;;
39266;SDS011;24967;51.154;13.812;2023-06-01T07:55:58;4.90;;;3.08;;
39266;SDS011;24967;51.154;13.812;2023-06-01T07:58:25;3.47;;;2.80;;
39266;SDS011;24967;51.154;13.812;2023-06-01T08:00:51;6.15;;;3.17;;
39266;SDS011;24967;51.154;13.812;2023-06-01T08:03:18;6.60;;;3.20;;
39266;SDS011;24967;51.154;13.812;2023-06-01T08:05:48;4.43;;;3.10;;
39266;SDS011;24967;51.154;13.812;2023-06-01T08:08:15;7.07;;;2.88;;
39266;SDS011;24967;51.154;13.812;2023-06-01T08:10:42;8.77;;;2.72;;
39266;SDS011;24967;51.154;13.812;2023-06-01T08:13:08;5.15;;;2.58;;
39266;SDS011;24967;51.154;13.812;2023-06-01T08:15:35;4.45;;;2.42;;
39266;SDS011;24967;51.154;13.812;2023-06-01T08:18:03;6.20;;;2.30;;
39266;SDS011;24967;51.154;13.812;2023-06-01T08:20:31;4.18;;;2.65;;
39266;SDS011;24967;51.154;13.812;2023-06-01T08:23:00;6.38;;;2.25;;
39266;SDS011;24967;51.154;13.812;2023-06-01T08:25:28;4.45;;;1.88;;
39266;SDS011;24967;51.154;13.812;2023-06-01T08:27:54;2.17;;;1.98;;
39266;SDS011;24967;51.154;13.812;2023-06-01T08:30:21;4.45;;;2.60;;
39266;SDS011;24967;51.154;13.812;2023-06-01T08:32:48;3.83;;;1.92;;
39266;SDS011;24967;51.154;13.812;2023-06-01T08:35:14;3.55;;;1.98;;
39266;SDS011;24967;51.154;13.812;2023-06-01T08:37:41;3.80;;;2.20;;
39266;SDS011;24967;51.154;13.812;2023-06-01T08:40:09;5.97;;;2.30;;
39266;SDS011;24967;51.154;13.812;2023-06-01T08:42:39;3.30;;;2.33;;
39266;SDS011;24967;51.154;13.812;2023-06-01T08:45:13;6.28;;;2.70;;
39266;SDS011;24967;51.154;13.812;2023-06-01T08:47:40;4.20;;;2.50;;
39266;SDS011;24967;51.154;13.812;2023-06-01T08:50:08;2.80;;;2.30;;
39266;SDS011;24967;51.154;13.812;2023-06-01T08:52:36;4.22;;;2.40;;
39266;SDS011;24967;51.154;13.812;2023-06-01T08:55:04;3.10;;;2.40;;
39266;SDS011;24967;51.154;13.812;2023-06-01T08:57:33;5.80;;;2.08;;
39266;SDS011;24967;51.154;13.812;2023-06-01T08:59:59;3.47;;;2.22;;
39266;SDS011;24967;51.154;13.812;2023-06-01T09:02:26;3.40;;;2.30;;
39266;SDS011;24967;51.154;13.812;2023-06-01T09:04:53;5.03;;;2.67;;
39266;SDS011;24967;51.154;13.812;2023-06-01T09:07:19;4.93;;;2.45;;
39266;SDS011;24967;51.154;13.812;2023-06-01T09:09:47;5.93;;;2.30;;
39266;SDS011;24967;51.154;13.812;2023-06-01T09:12:17;6.55;;;2.10;;
39266;SDS011;24967;51.154;13.812;2023-06-01T09:14:48;2.45;;;2.00;;
39266;SDS011;24967;51.154;13.812;2023-06-01T09:17:15;2.35;;;2.00;;
39266;SDS011;24967;51.154;13.812;2023-06-01T09:19:49;5.75;;;2.40;;
39266;SDS011;24967;51.154;13.812;2023-06-01T09:22:16;5.30;;;2.20;;
39266;SDS011;24967;51.154;13.812;2023-06-01T09:24:47;4.38;;;2.63;;
39266;SDS011;24967;51.154;13.812;2023-06-01T09:27:21;2.22;;;1.95;;
39266;SDS011;24967;51.154;13.812;2023-06-01T09:29:53;5.72;;;2.35;;
39266;SDS011;24967;51.154;13.812;2023-06-01T09:32:20;5.18;;;1.98;;
39266;SDS011;24967;51.154;13.812;2023-06-01T09:34:47;2.15;;;1.95;;
39266;SDS011;24967;51.154;13.812;2023-06-01T09:37:14;5.88;;;2.20;;
39266;SDS011;24967;51.154;13.812;2023-06-01T09:39:41;3.80;;;2.10;;
39266;SDS011;24967;51.154;13.812;2023-06-01T09:42:08;7.60;;;2.85;;
39266;SDS011;24967;51.154;13.812;2023-06-01T09:44:36;7.07;;;1.83;;
39266;SDS011;24967;51.154;13.812;2023-06-01T09:47:06;2.28;;;2.13;;
39266;SDS011;24967;51.154;13.812;2023-06-01T09:49:35;5.45;;;2.33;;
39266;SDS011;24967;51.154;13.812;2023-06-01T09:52:10;3.92;;;2.20;;
39266;SDS011;24967;51.154;13.812;2023-06-01T09:54:40;4.05;;;2.00;;
39266;SDS011;24967;51.154;13.812;2023-06-01T09:57:08;2.70;;;2.08;;
39266;SDS011;24967;51.154;13.812;2023-06-01T09:59:39;7.93;;;2.20;;
39266;SDS011;24967;51.154;13.812;2023-06-01T10:02:10;3.28;;;2.15;;
39266;SDS011;24967;51.154;13.812;2023-06-01T10:04:39;2.78;;;1.88;;
39266;SDS011;24967;51.154;13.812;2023-06-01T10:07:07;10.43;;;2.42;;
39266;SDS011;24967;51.154;13.812;2023-06-01T10:09:36;4.35;;;1.65;;
39266;SDS011;24967;51.154;13.812;2023-06-01T10:12:05;4.20;;;2.00;;
39266;SDS011;24967;51.154;13.812;2023-06-01T10:14:32;2.25;;;1.95;;
39266;SDS011;24967;51.154;13.812;2023-06-01T10:16:58;2.17;;;1.90;;
39266;SDS011;24967;51.154;13.812;2023-06-01T10:19:27;2.92;;;2.03;;
39266;SDS011;24967;51.154;13.812;2023-06-01T10:21:54;4.35;;;2.35;;
39266;SDS011;24967;51.154;13.812;2023-06-01T10:24:23;2.95;;;2.20;;
39266;SDS011;24967;51.154;13.812;2023-06-01T10:26:53;3.08;;;1.98;;
39266;SDS011;24967;51.154;13.812;2023-06-01T10:29:26;4.85;;;2.42;;
39266;SDS011;24967;51.154;13.812;2023-06-01T10:31:55;6.50;;;2.30;;
39266;SDS011;24967;51.154;13.812;2023-06-01T10:34:39;2.28;;;2.08;;
39266;SDS011;24967;51.154;13.812;2023-06-01T10:37:11;4.05;;;2.47;;
39266;SDS011;24967;51.154;13.812;2023-06-01T10:39:41;3.78;;;2.22;;
39266;SDS011;24967;51.154;13.812;2023-06-01T10:45:01;3.45;;;2.15;;
39266;SDS011;24967;51.154;13.812;2023-06-01T10:47:44;5.35;;;2.85;;
39266;SDS011;24967;51.154;13.812;2023-06-01T10:50:15;5.93;;;2.10;;
39266;SDS011;24967;51.154;13.812;2023-06-01T10:52:43;2.75;;;1.92;;
39266;SDS011;24967;51.154;13.812;2023-06-01T10:55:18;3.88;;;2.70;;
39266;SDS011;24967;51.154;13.812;2023-06-01T10:57:46;5.75;;;2.30;;
39266;SDS011;24967;51.154;13.812;2023-06-01T11:00:14;2.42;;;2.22;;
39266;SDS011;24967;51.154;13.812;2023-06-01T11:02:42;7.03;;;2.60;;
39266;SDS011;24967;51.154;13.812;2023-06-01T11:08:04;6.15;;;2.63;;
39266;SDS011;24967;51.154;13.812;2023-06-01T11:13:21;6.03;;;2.40;;
39266;SDS011;24967;51.154;13.812;2023-06-01T11:18:55;5.90;;;2.63;;
39266;SDS011;24967;51.154;13.812;2023-06-01T11:21:27;6.65;;;2.78;;
39266;SDS011;24967;51.154;13.812;2023-06-01T11:23:55;6.30;;;2.80;;
39266;SDS011;24967;51.154;13.812;2023-06-01T11:26:23;3.03;;;2.47;;
39266;SDS011;24967;51.154;13.812;2023-06-01T11:29:02;2.33;;;2.17;;
39266;SDS011;24967;51.154;13.812;2023-06-01T11:31:36;7.55;;;2.80;;
39266;SDS011;24967;51.154;13.812;2023-06-01T11:34:05;3.78;;;2.55;;
39266;SDS011;24967;51.154;13.812;2023-06-01T11:36:38;4.40;;;2.22;;
39266;SDS011;24967;51.154;13.812;2023-06-01T11:39:15;10.95;;;2.60;;
39266;SDS011;24967;51.154;13.812;2023-06-01T11:41:44;6.88;;;2.45;;
39266;SDS011;24967;51.154;13.812;2023-06-01T11:44:11;4.30;;;2.30;;
39266;SDS011;24967;51.154;13.812;2023-06-01T11:46:49;4.18;;;2.20;;
39266;SDS011;24967;51.154;13.812;2023-06-01T11:49:18;5.93;;;2.53;;
39266;SDS011;24967;51.154;13.812;2023-06-01T11:51:46;5.80;;;2.63;;
39266;SDS011;24967;51.154;13.812;2023-06-01T11:54:14;3.45;;;2.78;;
39266;SDS011;24967;51.154;13.812;2023-06-01T11:56:40;3.72;;;2.35;;
39266;SDS011;24967;51.154;13.812;2023-06-01T11:59:07;5.10;;;2.50;;
39266;SDS011;24967;51.154;13.812;2023-06-01T12:01:35;2.75;;;2.33;;
39266;SDS011;24967;51.154;13.812;2023-06-01T12:04:03;7.22;;;3.22;;
39266;SDS011;24967;51.154;13.812;2023-06-01T12:06:32;3.78;;;2.53;;
39266;SDS011;24967;51.154;13.812;2023-06-01T12:09:00;5.13;;;2.05;;
39266;SDS011;24967;51.154;13.812;2023-06-01T12:11:27;2.13;;;2.03;;
39266;SDS011;24967;51.154;13.812;2023-06-01T12:13:54;3.10;;;2.13;;
39266;SDS011;24967;51.154;13.812;2023-06-01T12:16:21;4.32;;;2.78;;
39266;SDS011;24967;51.154;13.812;2023-06-01T12:18:48;5.68;;;2.85;;
39266;SDS011;24967;51.154;13.812;2023-06-01T12:21:15;3.50;;;2.88;;
39266;SDS011;24967;51.154;13.812;2023-06-01T12:23:42;3.72;;;3.33;;
39266;SDS011;24967;51.154;13.812;2023-06-01T12:26:16;21.05;;;4.03;;
39266;SDS011;24967;51.154;13.812;2023-06-01T12:28:49;5.57;;;3.72;;
39266;SDS011;24967;51.154;13.812;2023-06-01T12:31:17;3.97;;;3.65;;
39266;SDS011;24967;51.154;13.812;2023-06-01T12:33:45;5.82;;;4.32;;
39266;SDS011;24967;51.154;13.812;2023-06-01T12:36:27;5.13;;;4.50;;
39266;SDS011;24967;51.154;13.812;2023-06-01T12:38:56;6.55;;;4.53;;
39266;SDS011;24967;51.154;13.812;2023-06-01T12:41:25;5.65;;;4.38;;
39266;SDS011;24967;51.154;13.812;2023-06-01T12:43:52;4.63;;;4.07;;
39266;SDS011;24967;51.154;13.812;2023-06-01T12:46:19;4.80;;;4.40;;
39266;SDS011;24967;51.154;13.812;2023-06-01T12:48:47;7.75;;;4.35;;
39266;SDS011;24967;51.154;13.812;2023-06-01T12:51:14;8.73;;;3.88;;
39266;SDS011;24967;51.154;13.812;2023-06-01T12:53:41;6.97;;;4.15;;
39266;SDS011;24967;51.154;13.812;2023-06-01T12:56:08;6.85;;;4.70;;
39266;SDS011;24967;51.154;13.812;2023-06-01T12:58:37;5.50;;;4.47;;
39266;SDS011;24967;51.154;13.812;2023-06-01T13:01:04;4.43;;;4.03;;
39266;SDS011;24967;51.154;13.812;2023-06-01T13:03:30;4.93;;;4.20;;
39266;SDS011;24967;51.154;13.812;2023-06-01T13:05:57;5.25;;;4.35;;
39266;SDS011;24967;51.154;13.812;2023-06-01T13:08:27;7.22;;;4.30;;
39266;SDS011;24967;51.154;13.812;2023-06-01T13:10:53;5.07;;;3.83;;
39266;SDS011;24967;51.154;13.812;2023-06-01T13:13:20;7.90;;;3.97;;
39266;SDS011;24967;51.154;13.812;2023-06-01T13:15:48;6.18;;;4.07;;
39266;SDS011;24967;51.154;13.812;2023-06-01T13:18:15;6.15;;;4.43;;
39266;SDS011;24967;51.154;13.812;2023-06-01T13:20:41;5.75;;;4.00;;
39266;SDS011;24967;51.154;13.812;2023-06-01T13:23:08;4.55;;;3.75;;
39266;SDS011;24967;51.154;13.812;2023-06-01T13:25:36;4.47;;;4.03;;
39266;SDS011;24967;51.154;13.812;2023-06-01T13:28:03;4.63;;;3.95;;
39266;SDS011;24967;51.154;13.812;2023-06-01T13:30:30;8.95;;;4.20;;
39266;SDS011;24967;51.154;13.812;2023-06-01T13:32:59;8.45;;;4.78;;
39266;SDS011;24967;51.154;13.812;2023-06-01T13:35:26;6.47;;;4.10;;
39266;SDS011;24967;51.154;13.812;2023-06-01T13:37:52;6.07;;;4.82;;
39266;SDS011;24967;51.154;13.812;2023-06-01T13:40:19;4.07;;;3.60;;
39266;SDS011;24967;51.154;13.812;2023-06-01T13:42:48;5.22;;;3.83;;
39266;SDS011;24967;51.154;13.812;2023-06-01T13:45:15;7.82;;;4.18;;
39266;SDS011;24967;51.154;13.812;2023-06-01T13:47:42;5.97;;;3.65;;
39266;SDS011;24967;51.154;13.812;2023-06-01T13:50:10;5.13;;;4.40;;
39266;SDS011;24967;51.154;13.812;2023-06-01T13:52:38;6.55;;;3.90;;
39266;SDS011;24967;51.154;13.812;2023-06-01T13:55:05;4.82;;;3.55;;
39266;SDS011;24967;51.154;13.812;2023-06-01T13:57:33;5.97;;;3.47;;
39266;SDS011;24967;51.154;13.812;2023-06-01T13:59:59;4.90;;;3.55;;
39266;SDS011;24967;51.154;13.812;2023-06-01T14:02:26;4.00;;;3.60;;
39266;SDS011;24967;51.154;13.812;2023-06-01T14:04:52;3.95;;;3.60;;
39266;SDS011;24967;51.154;13.812;2023-06-01T14:07:20;4.72;;;3.30;;
39266;SDS011;24967;51.154;13.812;2023-06-01T14:09:47;3.15;;;2.85;;
39266;SDS011;24967;51.154;13.812;2023-06-01T14:12:13;3.53;;;2.88;;
39266;SDS011;24967;51.154;13.812;2023-06-01T14:14:40;3.30;;;3.00;;
39266;SDS011;24967;51.154;13.812;2023-06-01T14:17:06;3.35;;;2.65;;
39266;SDS011;24967;51.154;13.812;2023-06-01T14:19:33;3.90;;;2.50;;
39266;SDS011;24967;51.154;13.812;2023-06-01T14:22:00;3.17;;;2.83;;
39266;SDS011;24967;51.154;13.812;2023-06-01T14:24:27;3.83;;;2.85;;
39266;SDS011;24967;51.154;13.812;2023-06-01T14:26:54;2.30;;;2.10;;
39266;SDS011;24967;51.154;13.812;2023-06-01T14:29:20;2.25;;;2.08;;
39266;SDS011;24967;51.154;13.812;2023-06-01T14:31:47;2.35;;;1.95;;
39266;SDS011;24967;51.154;13.812;2023-06-01T14:34:13;3.15;;;2.15;;
39266;SDS011;24967;51.154;13.812;2023-06-01T14:36:40;2.17;;;2.00;;
39266;SDS011;24967;51.154;13.812;2023-06-01T14:39:07;2.63;;;2.33;;
39266;SDS011;24967;51.154;13.812;2023-06-01T14:41:35;3.58;;;2.33;;
39266;SDS011;24967;51.154;13.812;2023-06-01T14:44:01;2.65;;;2.33;;
39266;SDS011;24967;51.154;13.812;2023-06-01T14:46:28;2.72;;;2.22;;
39266;SDS011;24967;51.154;13.812;2023-06-01T14:48:54;3.50;;;2.20;;